Time;durP1;ratioP1;P1;durP2;ratioP2;P2;SDS_P1;SDS_P2;PMS_P1;PMS_P2;Temp;Humidity;BMP_temperature;BMP_pressure;BME280_temperature;BME280_humidity;BME280_pressure;Samples;Min_cycle;Max_cycle;Signal;HPM_P1;HPM_P2
2022/05/16 00:00:53;;;;;;;1679.55;514.72;;;;;;;;;;6365712;22;20003;-94
2022/05/16 00:03:50;;;;;;;1693.47;516.67;;;;;;;;;;6392870;22;19987;-89
2022/05/16 00:06:16;;;;;;;1692.75;518.45;;;;;;;;;;6395523;22;20030;-88
2022/05/16 00:08:59;;;;;;;1714.22;526.65;;;;;;;;;;6398663;22;20029;-94
2022/05/16 00:11:25;;;;;;;1709.40;526.60;;;;;;;;;;6368295;22;19983;-90
2022/05/16 00:13:51;;;;;;;1728.90;533.47;;;;;;;;;;6387278;22;19998;-94
2022/05/16 00:16:17;;;;;;;1711.38;530.45;;;;;;;;;;6362437;22;20054;-90
2022/05/16 00:18:47;;;;;;;1832.20;541.33;;;;;;;;;;6385880;22;20340;-91
2022/05/16 00:21:16;;;;;;;1774.18;543.72;;;;;;;;;;6356315;22;20014;-92
2022/05/16 00:24:01;;;;;;;1759.35;546.53;;;;;;;;;;6397024;22;20027;-89
2022/05/16 00:26:34;;;;;;;1749.75;548.33;;;;;;;;;;6357856;22;19999;-91
2022/05/16 00:29:02;;;;;;;1748.00;548.63;;;;;;;;;;6387483;22;20067;-88
2022/05/16 00:31:51;;;;;;;1725.35;542.15;;;;;;;;;;6370027;22;20018;-90
2022/05/16 00:34:18;;;;;;;1662.97;515.95;;;;;;;;;;6296901;22;20510;-89
2022/05/16 00:37:19;;;;;;;1729.25;544.22;;;;;;;;;;6300492;22;19991;-88
2022/05/16 00:39:51;;;;;;;1722.18;542.08;;;;;;;;;;6300699;22;20023;-90
2022/05/16 00:48:28;;;;;;;1786.80;560.72;;;;;;;;;;6240217;23;20108;-91
2022/05/16 00:51:25;;;;;;;1745.78;546.58;;;;;;;;;;6242345;23;19996;-89
2022/05/16 00:53:55;;;;;;;1720.00;538.80;;;;;;;;;;6230127;22;20067;-88
2022/05/16 00:56:21;;;;;;;1720.80;538.33;;;;;;;;;;6347099;22;20002;-89
2022/05/16 00:58:49;;;;;;;1685.25;524.45;;;;;;;;;;6399532;22;20017;-89
2022/05/16 01:06:47;;;;;;;1659.18;520.58;;;;;;;;;;6384969;22;20056;-91
2022/05/16 01:09:13;;;;;;;1682.18;527.50;;;;;;;;;;6387323;22;20029;-95
2022/05/16 01:11:45;;;;;;;1678.90;527.10;;;;;;;;;;6365140;22;20005;-93
2022/05/16 01:14:13;;;;;;;1689.25;530.90;;;;;;;;;;6394875;22;20008;-92
2022/05/16 01:16:39;;;;;;;1686.25;528.63;;;;;;;;;;6391852;22;20002;-93
2022/05/16 01:19:06;;;;;;;1701.78;537.58;;;;;;;;;;6389637;22;20054;-91
2022/05/16 01:21:38;;;;;;;1683.22;530.80;;;;;;;;;;6384700;22;20007;-88
2022/05/16 01:24:20;;;;;;;1691.28;535.92;;;;;;;;;;6378106;22;20005;-88
2022/05/16 01:26:47;;;;;;;1670.63;529.08;;;;;;;;;;6388590;22;19999;-90
2022/05/16 01:29:13;;;;;;;1738.07;554.53;;;;;;;;;;6374288;22;20426;-89
2022/05/16 01:31:39;;;;;;;1857.38;561.05;;;;;;;;;;6347313;22;20362;-89
2022/05/16 01:34:05;;;;;;;1841.97;576.00;;;;;;;;;;6378421;22;20073;-89
2022/05/16 01:36:32;;;;;;;1789.18;568.35;;;;;;;;;;6377665;22;20003;-88
2022/05/16 01:38:58;;;;;;;1771.63;565.15;;;;;;;;;;6382967;22;20005;-89
2022/05/16 01:41:25;;;;;;;1756.80;563.10;;;;;;;;;;6379792;22;20034;-92
2022/05/16 01:43:55;;;;;;;1737.53;558.85;;;;;;;;;;6360456;22;20035;-93
2022/05/16 01:46:39;;;;;;;1742.68;560.75;;;;;;;;;;6365488;22;19997;-91
2022/05/16 01:49:07;;;;;;;1749.10;566.40;;;;;;;;;;6358479;22;20002;-93
2022/05/16 01:51:33;;;;;;;1740.90;564.55;;;;;;;;;;6356726;22;20009;-90
2022/05/16 01:54:13;;;;;;;1761.32;573.53;;;;;;;;;;6353079;22;20022;-90
2022/05/16 01:56:40;;;;;;;1872.40;575.13;;;;;;;;;;6356281;22;20353;-88
2022/05/16 01:59:08;;;;;;;1838.93;584.75;;;;;;;;;;6342396;22;19998;-90
2022/05/16 02:01:35;;;;;;;1815.35;583.97;;;;;;;;;;6325423;22;20013;-90
2022/05/16 02:04:18;;;;;;;1790.18;579.05;;;;;;;;;;6350227;22;19999;-91
2022/05/16 02:06:45;;;;;;;1779.57;578.47;;;;;;;;;;6325101;22;20006;-90
2022/05/16 02:09:11;;;;;;;1899.35;586.03;;;;;;;;;;6287567;22;20419;-89
2022/05/16 02:11:37;;;;;;;1851.28;592.20;;;;;;;;;;6344734;22;20337;-91
2022/05/16 02:14:03;;;;;;;1954.32;597.67;;;;;;;;;;6343495;22;20356;-93
2022/05/16 02:16:29;;;;;;;1881.97;600.22;;;;;;;;;;6313589;22;20341;-89
2022/05/16 02:18:56;;;;;;;1850.43;600.28;;;;;;;;;;6344522;22;20006;-90
2022/05/16 02:27:24;;;;;;;1978.22;609.00;;;;;;;;;;6349735;22;20440;-89
2022/05/16 02:29:50;;;;;;;1899.78;609.47;;;;;;;;;;6330868;22;20007;-91
2022/05/16 02:32:16;;;;;;;1991.85;612.65;;;;;;;;;;6355974;22;20370;-91
2022/05/16 02:34:45;;;;;;;1911.15;609.38;;;;;;;;;;6362088;22;20022;-93
2022/05/16 02:37:13;;;;;;;1999.90;617.03;;;;;;;;;;6327388;22;20404;-93
2022/05/16 02:39:44;;;;;;;1955.03;625.95;;;;;;;;;;6332232;22;19918;-90
2022/05/16 02:42:17;;;;;;;1999.90;635.88;;;;;;;;;;6354452;22;20381;-88
2022/05/16 02:44:44;;;;;;;1999.90;628.78;;;;;;;;;;6361932;22;20341;-88
2022/05/16 02:47:16;;;;;;;1963.37;624.83;;;;;;;;;;6365775;22;19994;-89
2022/05/16 02:49:44;;;;;;;1999.90;634.80;;;;;;;;;;6357843;22;20338;-91
2022/05/16 02:52:13;;;;;;;1962.60;627.03;;;;;;;;;;6325962;22;20018;-89
2022/05/16 02:54:41;;;;;;;1999.90;639.53;;;;;;;;;;6348937;22;20364;-89
2022/05/16 02:57:08;;;;;;;1972.10;635.63;;;;;;;;;;6353158;22;19999;-89
2022/05/16 02:59:38;;;;;;;1999.90;640.15;;;;;;;;;;6353783;22;20366;-91
2022/05/16 03:02:07;;;;;;;1999.90;642.50;;;;;;;;;;6353578;22;20368;-90
2022/05/16 03:04:35;;;;;;;1999.90;643.77;;;;;;;;;;6351504;22;20427;-91
2022/05/16 03:07:01;;;;;;;1975.60;628.90;;;;;;;;;;6327600;22;20007;-90
2022/05/16 03:09:48;;;;;;;1999.90;647.53;;;;;;;;;;6324939;22;20366;-88
2022/05/16 03:12:14;;;;;;;1995.38;644.42;;;;;;;;;;6328949;22;20221;-88
2022/05/16 03:14:40;;;;;;;1999.90;643.67;;;;;;;;;;6357718;22;20345;-88
2022/05/16 03:17:27;;;;;;;1999.90;658.40;;;;;;;;;;6357201;22;20027;-88
2022/05/16 03:20:19;;;;;;;1999.90;655.85;;;;;;;;;;6261988;23;20443;-89
2022/05/16 03:22:46;;;;;;;1968.25;644.80;;;;;;;;;;6205258;23;20016;-90
2022/05/16 03:25:13;;;;;;;1999.90;653.15;;;;;;;;;;6231617;23;20740;-89
2022/05/16 03:27:39;;;;;;;1965.32;645.42;;;;;;;;;;6237427;23;19891;-91
2022/05/16 03:30:11;;;;;;;1999.90;651.25;;;;;;;;;;6236720;23;20359;-89
2022/05/16 03:32:37;;;;;;;1999.90;646.65;;;;;;;;;;6215511;23;20401;-90
2022/05/16 03:35:12;;;;;;;1999.90;645.63;;;;;;;;;;6239691;23;20397;-89
2022/05/16 03:37:38;;;;;;;1999.90;650.08;;;;;;;;;;6239538;23;20364;-87
2022/05/16 03:43:32;;;;;;;1999.90;640.50;;;;;;;;;;6230619;23;20367;-89
2022/05/16 03:46:08;;;;;;;1999.90;635.85;;;;;;;;;;6184095;23;20352;-94
2022/05/16 03:48:34;;;;;;;1997.97;642.33;;;;;;;;;;6191523;23;20009;-92
2022/05/16 03:51:01;;;;;;;1999.90;648.50;;;;;;;;;;6187580;23;20464;-92
2022/05/16 03:53:27;;;;;;;1999.90;641.15;;;;;;;;;;6186540;23;20375;-93
2022/05/16 03:55:54;;;;;;;1985.38;636.50;;;;;;;;;;6214795;23;20106;-89
2022/05/16 03:58:20;;;;;;;1999.90;638.63;;;;;;;;;;6214136;23;20379;-92
2022/05/16 04:00:46;;;;;;;1986.30;640.08;;;;;;;;;;6216939;23;20016;-93
2022/05/16 04:03:14;;;;;;;1999.90;641.85;;;;;;;;;;6215589;22;20365;-93
2022/05/16 04:05:40;;;;;;;1999.90;645.67;;;;;;;;;;6310196;22;20344;-91
2022/05/16 04:08:28;;;;;;;1999.90;646.75;;;;;;;;;;6302904;22;20369;-88
2022/05/16 04:10:55;;;;;;;1976.75;641.35;;;;;;;;;;6219535;23;20004;-90
2022/05/16 04:13:46;;;;;;;1999.90;646.58;;;;;;;;;;6199799;23;20449;-93
2022/05/16 04:16:18;;;;;;;1984.15;648.25;;;;;;;;;;6198411;23;20326;-93
2022/05/16 04:18:46;;;;;;;1999.90;647.33;;;;;;;;;;6198942;23;20723;-89
2022/05/16 04:21:12;;;;;;;1999.90;649.50;;;;;;;;;;6204303;23;20375;-92
2022/05/16 04:23:40;;;;;;;1999.90;652.30;;;;;;;;;;6204616;23;20056;-93
2022/05/16 04:26:09;;;;;;;1999.90;656.13;;;;;;;;;;6251428;23;20362;-89
2022/05/16 04:29:02;;;;;;;1999.90;649.03;;;;;;;;;;6267310;23;20342;-88
2022/05/16 04:31:42;;;;;;;1999.90;643.08;;;;;;;;;;6266561;23;20353;-88
2022/05/16 04:36:54;;;;;;;1999.90;648.78;;;;;;;;;;6361454;22;20365;-87
2022/05/16 04:39:20;;;;;;;1977.80;649.10;;;;;;;;;;6363594;22;19903;-87
2022/05/16 04:44:51;;;;;;;;;;;;;;;;;;6362478;22;20041;-90
2022/05/16 04:47:31;;;;;;;1999.90;658.72;;;;;;;;;;6352001;22;20429;-89
2022/05/16 04:50:13;;;;;;;1999.90;655.73;;;;;;;;;;6356806;22;20341;-86
2022/05/16 04:52:51;;;;;;;1999.90;655.00;;;;;;;;;;6360432;22;20324;-91
2022/05/16 04:55:17;;;;;;;;;;;;;;;;;;6361198;22;20006;-89
2022/05/16 04:57:50;;;;;;;1934.15;650.80;;;;;;;;;;6331661;22;19883;-90
2022/05/16 05:00:19;;;;;;;1999.90;644.97;;;;;;;;;;6354791;22;20372;-87
2022/05/16 05:02:45;;;;;;;;;;;;;;;;;;6331226;22;20045;-87
2022/05/16 05:05:15;;;;;;;;;;;;;;;;;;6358950;22;20382;-92
2022/05/16 05:07:47;;;;;;;1999.90;683.35;;;;;;;;;;6354761;22;25067;-87
2022/05/16 05:15:46;;;;;;;1999.90;675.90;;;;;;;;;;6347060;22;20383;-92
2022/05/16 05:18:12;;;;;;;1999.90;668.90;;;;;;;;;;6348656;22;20351;-93
2022/05/16 05:20:39;;;;;;;1999.90;665.33;;;;;;;;;;6342162;22;20376;-90
2022/05/16 05:23:05;;;;;;;1999.90;669.78;;;;;;;;;;6327839;22;20012;-89
2022/05/16 05:25:34;;;;;;;1999.90;667.90;;;;;;;;;;6351360;22;20345;-89
2022/05/16 05:28:02;;;;;;;1999.90;665.30;;;;;;;;;;6357199;22;20344;-88
2022/05/16 05:30:30;;;;;;;1999.90;658.75;;;;;;;;;;6349686;22;19999;-89
2022/05/16 05:32:58;;;;;;;1999.90;636.67;;;;;;;;;;6348574;22;20407;-91
2022/05/16 05:35:26;;;;;;;1999.90;620.90;;;;;;;;;;6346413;22;20349;-91
2022/05/16 05:37:55;;;;;;;22.25;4.97;;;;;;;;;;6320009;22;20083;-88
2022/05/16 05:40:21;;;;;;;20.42;4.03;;;;;;;;;;6348047;22;20005;-89
2022/05/16 05:42:51;;;;;;;17.38;4.30;;;;;;;;;;6347409;22;20343;-88
2022/05/16 05:45:17;;;;;;;21.40;4.50;;;;;;;;;;6321471;22;19998;-88
2022/05/16 05:47:45;;;;;;;19.35;4.25;;;;;;;;;;6349175;22;20014;-87
2022/05/16 05:50:11;;;;;;;19.75;4.13;;;;;;;;;;6326681;22;20342;-88
2022/05/16 05:52:38;;;;;;;16.33;4.20;;;;;;;;;;6313159;22;20457;-89
2022/05/16 05:55:04;;;;;;;18.90;4.78;;;;;;;;;;6310531;22;20049;-92
2022/05/16 05:57:30;;;;;;;16.25;3.58;;;;;;;;;;6344752;22;20029;-88
2022/05/16 05:59:57;;;;;;;20.92;3.58;;;;;;;;;;6338116;22;19999;-90
2022/05/16 06:02:23;;;;;;;12.88;3.35;;;;;;;;;;6333767;22;20054;-90
2022/05/16 06:04:52;;;;;;;12.88;2.95;;;;;;;;;;6341688;22;20003;-87
2022/05/16 06:07:18;;;;;;;20.88;3.88;;;;;;;;;;6345791;22;20224;-89
2022/05/16 06:09:44;;;;;;;18.67;3.75;;;;;;;;;;6342934;22;20006;-86
2022/05/16 06:12:12;;;;;;;17.13;3.80;;;;;;;;;;6346179;22;19995;-88
2022/05/16 06:14:43;;;;;;;18.83;4.22;;;;;;;;;;6353946;22;20010;-86
2022/05/16 06:17:10;;;;;;;19.35;3.67;;;;;;;;;;6361895;22;19995;-87
2022/05/16 06:19:36;;;;;;;19.05;4.30;;;;;;;;;;6358836;22;19999;-87
2022/05/16 06:22:02;;;;;;;19.25;4.20;;;;;;;;;;6351273;22;20011;-92
2022/05/16 06:27:13;;;;;;;17.40;3.45;;;;;;;;;;6341061;22;20119;-92
2022/05/16 06:29:40;;;;;;;15.20;3.90;;;;;;;;;;6340562;22;20006;-94
2022/05/16 06:32:07;;;;;;;19.58;4.00;;;;;;;;;;6345876;22;19999;-89
2022/05/16 06:34:33;;;;;;;24.08;3.80;;;;;;;;;;6313401;22;20044;-91
2022/05/16 06:36:59;;;;;;;14.23;3.55;;;;;;;;;;6315159;22;20002;-88
2022/05/16 06:39:25;;;;;;;16.70;3.97;;;;;;;;;;6340180;22;19998;-92
2022/05/16 06:41:51;;;;;;;17.75;3.85;;;;;;;;;;6341706;22;20113;-87
2022/05/16 06:44:19;;;;;;;16.33;3.20;;;;;;;;;;6339000;22;20071;-91
2022/05/16 06:46:45;;;;;;;23.23;3.75;;;;;;;;;;6341061;22;20010;-90
2022/05/16 06:49:11;;;;;;;22.63;3.83;;;;;;;;;;6349890;22;20018;-90
2022/05/16 06:51:38;;;;;;;16.52;3.72;;;;;;;;;;6314401;22;20010;-88
2022/05/16 06:54:05;;;;;;;12.52;3.65;;;;;;;;;;6310972;22;20033;-88
2022/05/16 06:56:32;;;;;;;17.55;3.75;;;;;;;;;;6335806;22;20095;-87
2022/05/16 06:58:58;;;;;;;16.63;3.55;;;;;;;;;;6338106;22;20056;-89
2022/05/16 07:01:24;;;;;;;21.90;3.20;;;;;;;;;;6344534;22;20014;-92
2022/05/16 07:03:50;;;;;;;16.45;3.80;;;;;;;;;;6317497;22;20090;-88
2022/05/16 07:06:16;;;;;;;17.77;3.53;;;;;;;;;;6315589;22;20465;-87
2022/05/16 07:08:42;;;;;;;16.05;3.78;;;;;;;;;;6321088;22;19999;-90
2022/05/16 07:11:09;;;;;;;15.05;3.47;;;;;;;;;;6346685;22;20461;-92
2022/05/16 07:13:36;;;;;;;14.82;3.45;;;;;;;;;;6311863;22;20435;-90
2022/05/16 07:16:02;;;;;;;14.18;2.88;;;;;;;;;;6337729;22;19999;-86
2022/05/16 07:18:28;;;;;;;14.20;3.20;;;;;;;;;;6337459;22;19995;-92
2022/05/16 07:20:55;;;;;;;15.55;3.15;;;;;;;;;;6340266;22;20082;-91
2022/05/16 07:23:22;;;;;;;15.88;3.28;;;;;;;;;;6312885;22;20056;-93
2022/05/16 07:28:33;;;;;;;14.82;3.35;;;;;;;;;;6346261;22;20032;-87
2022/05/16 07:30:59;;;;;;;11.93;3.30;;;;;;;;;;6339889;22;20427;-88
2022/05/16 07:33:25;;;;;;;12.48;3.17;;;;;;;;;;6341265;22;20435;-87
2022/05/16 07:35:52;;;;;;;13.50;2.95;;;;;;;;;;6313770;22;20064;-93
2022/05/16 07:38:28;;;;;;;21.60;3.47;;;;;;;;;;6318388;22;20103;-86
2022/05/16 07:40:55;;;;;;;12.32;3.00;;;;;;;;;;6337554;22;20003;-88
2022/05/16 07:43:22;;;;;;;13.60;3.25;;;;;;;;;;6339733;22;20040;-88
2022/05/16 07:45:48;;;;;;;15.45;3.00;;;;;;;;;;6341690;22;20007;-90
2022/05/16 07:48:15;;;;;;;14.38;2.85;;;;;;;;;;6312694;22;20050;-88
2022/05/16 07:50:41;;;;;;;8.60;2.70;;;;;;;;;;6343630;22;20339;-89
2022/05/16 07:53:12;;;;;;;13.02;2.45;;;;;;;;;;6336497;22;20024;-91
2022/05/16 07:55:39;;;;;;;10.50;2.92;;;;;;;;;;6309543;22;20433;-87
2022/05/16 07:58:05;;;;;;;14.68;3.00;;;;;;;;;;6341411;22;19999;-91
2022/05/16 08:00:31;;;;;;;16.85;3.40;;;;;;;;;;6338493;22;20026;-94
2022/05/16 08:02:57;;;;;;;15.98;3.53;;;;;;;;;;6339549;22;20003;-89
2022/05/16 08:05:23;;;;;;;11.07;2.83;;;;;;;;;;6336834;22;19995;-87
2022/05/16 08:10:36;;;;;;;17.42;3.08;;;;;;;;;;6339370;22;20018;-85
2022/05/16 08:13:04;;;;;;;10.63;2.80;;;;;;;;;;6313609;22;20003;-88
2022/05/16 08:15:31;;;;;;;16.23;3.05;;;;;;;;;;6339000;22;20010;-93
2022/05/16 08:17:57;;;;;;;15.48;3.22;;;;;;;;;;6309293;22;20052;-89
2022/05/16 08:20:25;;;;;;;9.88;2.65;;;;;;;;;;6339118;22;20041;-93
2022/05/16 08:22:52;;;;;;;10.63;2.60;;;;;;;;;;6344432;22;20009;-91
2022/05/16 08:25:19;;;;;;;9.75;2.30;;;;;;;;;;6338232;22;20450;-94
2022/05/16 08:27:45;;;;;;;12.07;2.60;;;;;;;;;;6339569;22;20401;-87
2022/05/16 08:30:12;;;;;;;14.27;2.40;;;;;;;;;;6337031;22;19999;-86
2022/05/16 08:32:38;;;;;;;11.85;2.60;;;;;;;;;;6311713;22;20348;-92
2022/05/16 08:35:07;;;;;;;26.05;2.80;;;;;;;;;;6339581;22;19999;-88
2022/05/16 08:40:18;;;;;;;15.05;3.92;;;;;;;;;;6337734;22;20065;-92
2022/05/16 08:42:47;;;;;;;15.38;3.28;;;;;;;;;;6311317;22;20003;-95
2022/05/16 08:45:29;;;;;;;13.88;2.83;;;;;;;;;;6339527;22;19995;-90
2022/05/16 08:48:14;;;;;;;16.52;3.00;;;;;;;;;;6337916;22;20056;-93
2022/05/16 08:50:42;;;;;;;9.15;2.50;;;;;;;;;;6348505;22;20072;-89
2022/05/16 08:53:08;;;;;;;;;;;;;;;;;;6336157;22;20012;-87
2022/05/16 08:55:35;;;;;;;9.90;2.40;;;;;;;;;;6336869;22;19922;-92
2022/05/16 08:58:14;;;;;;;13.43;2.55;;;;;;;;;;6335878;22;20026;-89
2022/05/16 09:00:41;;;;;;;9.90;2.58;;;;;;;;;;6350191;22;19999;-88
2022/05/16 09:03:12;;;;;;;9.98;2.25;;;;;;;;;;6311673;22;20002;-87
2022/05/16 09:05:59;;;;;;;13.00;2.45;;;;;;;;;;6337643;22;19999;-86
2022/05/16 09:08:47;;;;;;;11.10;2.60;;;;;;;;;;6339225;22;19999;-88
2022/05/16 09:11:33;;;;;;;14.20;2.60;;;;;;;;;;6342626;22;20009;-94
2022/05/16 09:14:17;;;;;;;8.55;2.30;;;;;;;;;;6329562;22;20065;-95
2022/05/16 09:16:43;;;;;;;6.90;2.20;;;;;;;;;;6340510;22;19998;-86
2022/05/16 09:19:28;;;;;;;13.27;2.30;;;;;;;;;;6311010;22;20006;-87
2022/05/16 09:22:00;;;;;;;9.57;2.35;;;;;;;;;;6343321;22;20026;-90
2022/05/16 09:24:35;;;;;;;6.90;2.20;;;;;;;;;;6319465;22;20053;-95
2022/05/16 09:30:11;;;;;;;8.75;2.45;;;;;;;;;;6350052;22;20022;-90
2022/05/16 09:32:40;;;;;;;8.77;2.43;;;;;;;;;;6349231;22;19999;-86
2022/05/16 09:35:12;;;;;;;16.77;3.17;;;;;;;;;;6340511;22;20141;-87
2022/05/16 09:37:52;;;;;;;12.10;2.35;;;;;;;;;;6346248;22;20431;-89
2022/05/16 09:40:21;;;;;;;9.40;2.47;;;;;;;;;;6354756;22;20031;-88
2022/05/16 09:42:50;;;;;;;11.77;2.25;;;;;;;;;;6321774;22;19999;-89
2022/05/16 09:45:25;;;;;;;8.32;1.95;;;;;;;;;;6349969;22;19999;-88
2022/05/16 09:47:51;;;;;;;8.95;2.20;;;;;;;;;;6343865;22;20005;-93
2022/05/16 09:50:20;;;;;;;8.85;1.90;;;;;;;;;;6336802;22;20050;-95
2022/05/16 09:52:49;;;;;;;10.27;2.17;;;;;;;;;;6313363;22;20037;-89
2022/05/16 09:55:27;;;;;;;10.05;1.92;;;;;;;;;;6340701;22;20075;-89
2022/05/16 09:57:56;;;;;;;8.07;2.17;;;;;;;;;;6337027;22;20048;-92
2022/05/16 10:00:25;;;;;;;12.80;2.75;;;;;;;;;;6339096;22;20066;-93
2022/05/16 10:02:54;;;;;;;;;;;;;;;;;;6312304;22;20014;-89
2022/05/16 10:05:20;;;;;;;9.80;2.20;;;;;;;;;;6340291;22;20284;-92
2022/05/16 10:07:47;;;;;;;7.20;1.90;;;;;;;;;;6311898;22;19998;-90
2022/05/16 10:10:40;;;;;;;6.13;2.08;;;;;;;;;;6335983;22;20502;-90
2022/05/16 10:13:08;;;;;;;6.22;1.77;;;;;;;;;;6337713;22;20010;-93
2022/05/16 10:15:35;;;;;;;8.90;1.73;;;;;;;;;;6341623;22;20002;-91
2022/05/16 10:18:03;;;;;;;7.80;1.80;;;;;;;;;;6339804;22;20002;-90
2022/05/16 10:20:36;;;;;;;8.48;2.15;;;;;;;;;;6338845;22;19999;-90
2022/05/16 10:23:13;;;;;;;6.95;1.77;;;;;;;;;;6339674;22;20007;-90
2022/05/16 10:25:42;;;;;;;8.55;2.00;;;;;;;;;;6340300;22;20006;-90
2022/05/16 10:28:10;;;;;;;6.75;1.88;;;;;;;;;;6310356;22;20316;-87
2022/05/16 10:33:24;;;;;;;7.00;1.85;;;;;;;;;;6339789;22;20336;-89
2022/05/16 10:33:24;;;;;;;7.15;2.20;;;;;;;;;;6337948;22;20011;-88
2022/05/16 10:35:55;;;;;;;15.73;2.33;;;;;;;;;;6339177;22;20022;-89
2022/05/16 10:38:38;;;;;;;8.77;1.85;;;;;;;;;;6316534;22;20009;-89
2022/05/16 10:41:10;;;;;;;11.45;2.30;;;;;;;;;;6321070;22;20067;-89
2022/05/16 10:43:55;;;;;;;8.35;1.80;;;;;;;;;;6336607;22;20083;-91
2022/05/16 10:46:29;;;;;;;4.53;1.70;;;;;;;;;;6339430;22;20002;-92
2022/05/16 10:49:01;;;;;;;8.75;2.10;;;;;;;;;;6338942;22;20066;-90
2022/05/16 10:51:46;;;;;;;7.65;1.73;;;;;;;;;;6345377;22;20006;-88
2022/05/16 10:54:16;;;;;;;6.07;1.63;;;;;;;;;;6340634;22;20002;-87
2022/05/16 10:56:42;;;;;;;6.32;2.10;;;;;;;;;;6340398;22;20423;-89
2022/05/16 10:59:10;;;;;;;7.07;1.85;;;;;;;;;;6343167;22;20010;-88
2022/05/16 11:01:45;;;;;;;7.07;1.80;;;;;;;;;;6343333;22;20038;-88
2022/05/16 11:04:20;;;;;;;9.07;2.10;;;;;;;;;;6313824;22;20078;-94
2022/05/16 11:06:56;;;;;;;5.72;1.77;;;;;;;;;;6315158;22;20010;-91
2022/05/16 11:09:31;;;;;;;10.48;2.20;;;;;;;;;;6351207;22;19999;-93
2022/05/16 11:15:07;;;;;;;8.65;1.90;;;;;;;;;;6346619;22;20021;-87
2022/05/16 11:17:39;;;;;;;6.53;2.28;;;;;;;;;;6352057;22;20002;-90
2022/05/16 11:20:09;;;;;;;7.63;2.05;;;;;;;;;;6342781;22;20037;-86
2022/05/16 11:22:42;;;;;;;8.98;1.70;;;;;;;;;;6351293;22;20237;-85
2022/05/16 11:25:17;;;;;;;7.43;1.92;;;;;;;;;;6347087;22;20347;-88
2022/05/16 11:27:52;;;;;;;6.78;2.25;;;;;;;;;;6327567;22;20062;-88
2022/05/16 11:30:21;;;;;;;5.35;1.90;;;;;;;;;;6324802;22;20002;-86
2022/05/16 11:33:09;;;;;;;8.75;1.90;;;;;;;;;;6339798;22;19995;-85
2022/05/16 11:35:41;;;;;;;7.75;1.95;;;;;;;;;;6302927;22;20377;-86
2022/05/16 11:38:26;;;;;;;8.45;1.92;;;;;;;;;;6363663;22;20014;-87
2022/05/16 11:41:12;;;;;;;7.50;2.03;;;;;;;;;;6358865;22;20006;-87
2022/05/16 11:43:46;;;;;;;4.95;1.77;;;;;;;;;;6353733;22;20010;-88
2022/05/16 11:46:31;;;;;;;6.10;2.10;;;;;;;;;;6350647;22;19994;-87
2022/05/16 11:49:13;;;;;;;6.10;2.20;;;;;;;;;;6324570;22;20010;-87
2022/05/16 11:51:48;;;;;;;5.55;1.70;;;;;;;;;;6341313;22;20003;-88
2022/05/16 11:54:17;;;;;;;7.55;1.98;;;;;;;;;;6344266;22;20048;-87
2022/05/16 12:02:22;;;;;;;5.30;2.00;;;;;;;;;;6343143;22;20123;-92
2022/05/16 12:04:48;;;;;;;7.22;2.25;;;;;;;;;;6326172;22;20233;-91
2022/05/16 12:07:33;;;;;;;13.50;2.42;;;;;;;;;;6352029;22;20007;-92
2022/05/16 12:10:17;;;;;;;6.70;1.90;;;;;;;;;;6351854;22;19995;-86
2022/05/16 12:12:53;;;;;;;12.80;1.80;;;;;;;;;;6357779;22;20002;-86
2022/05/16 12:15:26;;;;;;;7.05;2.00;;;;;;;;;;6351191;22;20024;-85
2022/05/16 12:17:53;;;;;;;9.25;2.05;;;;;;;;;;6347972;22;20085;-87
2022/05/16 12:20:37;;;;;;;6.80;1.67;;;;;;;;;;6342950;22;19999;-91
2022/05/16 12:23:05;;;;;;;7.88;2.88;;;;;;;;;;6345921;22;19999;-87
2022/05/16 12:25:32;;;;;;;;;;;;;;;;;;6348041;22;20066;-89
2022/05/16 12:28:13;;;;;;;8.50;2.22;;;;;;;;;;6345285;22;19899;-89
2022/05/16 12:30:46;;;;;;;7.35;1.88;;;;;;;;;;6342538;22;20439;-86
2022/05/16 12:33:24;;;;;;;7.63;2.08;;;;;;;;;;6312649;22;20006;-90
2022/05/16 12:35:54;;;;;;;5.40;1.83;;;;;;;;;;6339495;22;20036;-88
2022/05/16 12:38:22;;;;;;;6.13;1.98;;;;;;;;;;6332680;22;20033;-89
2022/05/16 12:40:48;;;;;;;10.43;2.15;;;;;;;;;;6341685;22;20343;-90
2022/05/16 12:43:30;;;;;;;6.88;1.92;;;;;;;;;;6313183;22;20439;-87
2022/05/16 12:46:15;;;;;;;6.85;1.90;;;;;;;;;;6341084;22;19995;-87
2022/05/16 12:48:56;;;;;;;7.80;1.80;;;;;;;;;;6343675;22;20007;-86
2022/05/16 12:51:28;;;;;;;6.72;2.05;;;;;;;;;;6312972;22;20350;-89
2022/05/16 12:54:00;;;;;;;5.95;1.98;;;;;;;;;;6340997;22;20022;-86
2022/05/16 12:56:32;;;;;;;5.78;2.00;;;;;;;;;;6340279;22;20052;-86
2022/05/16 12:59:26;;;;;;;7.15;1.92;;;;;;;;;;6349569;22;20054;-86
2022/05/16 13:02:02;;;;;;;7.32;2.10;;;;;;;;;;6345806;22;20007;-88
2022/05/16 13:05:01;;;;;;;9.27;2.03;;;;;;;;;;6344467;22;20006;-92
2022/05/16 13:07:39;;;;;;;3.58;1.83;;;;;;;;;;6315333;22;20458;-87
2022/05/16 13:10:09;;;;;;;4.85;2.00;;;;;;;;;;6353686;22;19998;-88
2022/05/16 13:12:53;;;;;;;7.28;1.98;;;;;;;;;;6330850;22;20011;-87
2022/05/16 13:15:26;;;;;;;4.57;1.92;;;;;;;;;;6346213;22;20067;-86
2022/05/16 13:17:53;;;;;;;5.25;1.80;;;;;;;;;;6316509;22;20470;-89
2022/05/16 13:20:24;;;;;;;7.28;2.30;;;;;;;;;;6348722;22;19999;-87
2022/05/16 13:22:50;;;;;;;5.63;1.83;;;;;;;;;;6315462;22;20013;-88
2022/05/16 13:25:21;;;;;;;6.15;2.15;;;;;;;;;;6315495;22;20440;-86
2022/05/16 13:30:39;;;;;;;11.95;2.42;;;;;;;;;;6347365;22;20014;-87
2022/05/16 13:33:28;;;;;;;7.07;2.30;;;;;;;;;;6343115;22;20021;-87
2022/05/16 13:36:19;;;;;;;9.38;2.15;;;;;;;;;;6279321;22;20049;-88
2022/05/16 13:38:46;;;;;;;9.90;2.20;;;;;;;;;;6282625;22;20059;-92
2022/05/16 13:41:12;;;;;;;5.65;2.00;;;;;;;;;;6277353;22;20337;-90
2022/05/16 13:43:44;;;;;;;11.48;2.25;;;;;;;;;;6279803;22;20337;-86
2022/05/16 13:46:13;;;;;;;5.70;2.05;;;;;;;;;;6275390;22;20344;-87
2022/05/16 13:48:42;;;;;;;4.53;1.95;;;;;;;;;;6272834;22;20077;-87
2022/05/16 13:51:08;;;;;;;4.28;2.10;;;;;;;;;;6278008;22;20037;-88
2022/05/16 13:53:34;;;;;;;4.95;2.10;;;;;;;;;;6256378;22;20349;-88
2022/05/16 13:56:01;;;;;;;5.88;2.00;;;;;;;;;;6275637;22;20004;-87
2022/05/16 13:58:37;;;;;;;10.57;2.10;;;;;;;;;;6285567;22;20000;-87
2022/05/16 14:01:22;;;;;;;6.25;2.38;;;;;;;;;;6284898;22;20012;-93
2022/05/16 14:04:04;;;;;;;8.88;2.20;;;;;;;;;;6277401;22;20032;-88
2022/05/16 14:06:34;;;;;;;15.10;2.15;;;;;;;;;;6230380;22;20456;-87
2022/05/16 14:09:03;;;;;;;4.22;2.00;;;;;;;;;;6281347;22;20072;-87
2022/05/16 14:11:30;;;;;;;8.30;2.20;;;;;;;;;;6279446;22;19996;-88
2022/05/16 14:13:56;;;;;;;7.55;2.55;;;;;;;;;;6297755;22;19996;-85
2022/05/16 14:16:24;;;;;;;5.22;2.08;;;;;;;;;;6297186;22;19998;-88
2022/05/16 14:18:52;;;;;;;5.85;2.08;;;;;;;;;;6293662;22;20004;-86
2022/05/16 14:21:25;;;;;;;7.95;2.05;;;;;;;;;;6254206;22;20011;-86
2022/05/16 14:24:05;;;;;;;9.00;2.47;;;;;;;;;;6278054;22;20020;-86
2022/05/16 14:26:40;;;;;;;13.82;2.20;;;;;;;;;;6277898;22;20447;-87
2022/05/16 14:29:18;;;;;;;9.35;2.53;;;;;;;;;;6336650;22;20003;-88
2022/05/16 14:31:52;;;;;;;7.72;2.10;;;;;;;;;;6338934;22;19995;-87
2022/05/16 14:34:35;;;;;;;10.20;2.47;;;;;;;;;;6339817;22;20074;-87
2022/05/16 14:37:04;;;;;;;6.15;2.08;;;;;;;;;;6323642;22;20015;-91
2022/05/16 14:39:31;;;;;;;9.38;2.03;;;;;;;;;;6343575;22;20003;-86
2022/05/16 14:42:04;;;;;;;11.18;2.42;;;;;;;;;;6346162;22;20013;-90
2022/05/16 14:44:33;;;;;;;8.60;2.28;;;;;;;;;;6317613;22;20006;-89
2022/05/16 14:47:13;;;;;;;5.32;2.15;;;;;;;;;;6343901;22;20002;-92
2022/05/16 14:49:39;;;;;;;7.43;2.20;;;;;;;;;;6339502;22;20003;-91
2022/05/16 14:52:07;;;;;;;12.50;2.83;;;;;;;;;;6345594;22;20469;-94
2022/05/16 14:54:36;;;;;;;8.80;2.30;;;;;;;;;;6342172;22;20362;-89
2022/05/16 14:57:04;;;;;;;7.40;2.38;;;;;;;;;;6342016;22;20056;-89
2022/05/16 14:59:31;;;;;;;10.52;2.58;;;;;;;;;;6308686;22;20127;-93
2022/05/16 15:04:42;;;;;;;11.73;2.05;;;;;;;;;;6338841;22;20393;-93
2022/05/16 15:07:10;;;;;;;5.40;2.03;;;;;;;;;;6339348;22;20114;-89
2022/05/16 15:09:36;;;;;;;11.45;2.22;;;;;;;;;;6339791;22;20044;-94
2022/05/16 15:12:05;;;;;;;6.78;2.03;;;;;;;;;;6340057;22;19999;-86
2022/05/16 15:14:31;;;;;;;5.03;1.88;;;;;;;;;;6341296;22;19999;-87
2022/05/16 15:16:57;;;;;;;5.07;2.10;;;;;;;;;;6338148;22;19999;-90
2022/05/16 15:19:25;;;;;;;7.00;2.03;;;;;;;;;;6335021;22;20002;-85
2022/05/16 15:21:51;;;;;;;16.15;2.55;;;;;;;;;;6340811;22;20013;-92
2022/05/16 15:24:28;;;;;;;6.43;2.10;;;;;;;;;;6338772;22;20075;-91
2022/05/16 15:26:54;;;;;;;7.07;2.10;;;;;;;;;;6308844;22;20007;-92
2022/05/16 15:29:20;;;;;;;10.82;2.10;;;;;;;;;;6310535;22;20343;-90
2022/05/16 15:31:47;;;;;;;6.82;2.13;;;;;;;;;;6340027;22;20003;-92
2022/05/16 15:34:13;;;;;;;5.07;2.00;;;;;;;;;;6336465;22;19999;-93
2022/05/16 15:36:39;;;;;;;4.60;2.05;;;;;;;;;;6345744;22;20029;-89
2022/05/16 15:39:07;;;;;;;7.13;2.13;;;;;;;;;;6312905;22;20010;-92
2022/05/16 15:41:33;;;;;;;;;;;;;;;;;;6340250;22;20011;-87
2022/05/16 15:43:59;;;;;;;6.15;1.77;;;;;;;;;;6309423;22;19943;-93